createdAt,value
2023-02-15T00:02:39.745Z,73.62
2023-02-15T00:05:41.872Z,73.60
2023-02-15T00:08:43.971Z,73.63
2023-02-15T00:11:52.077Z,73.62
2023-02-15T00:14:54.244Z,73.60
2023-02-15T00:17:57.237Z,73.37
2023-02-15T00:21:03.448Z,73.37
2023-02-15T00:24:08.063Z,73.34
2023-02-15T00:27:09.945Z,73.34
2023-02-15T00:30:12.438Z,73.42
2023-02-15T00:33:14.342Z,73.61
2023-02-15T00:36:16.218Z,73.65
2023-02-15T00:39:19.005Z,73.69
2023-02-15T00:42:20.982Z,73.66
2023-02-15T00:45:22.861Z,73.71
2023-02-15T00:48:24.970Z,73.67
2023-02-15T00:51:27.236Z,73.59
2023-02-15T00:54:29.146Z,73.59
2023-02-15T00:57:31.891Z,73.55
2023-02-15T01:00:33.974Z,73.56
2023-02-15T01:03:36.578Z,73.53
2023-02-15T01:06:38.548Z,73.59
2023-02-15T01:09:40.435Z,73.66
2023-02-15T01:12:42.564Z,73.75
2023-02-15T01:15:45.236Z,73.73
2023-02-15T01:18:47.574Z,73.67
2023-02-15T01:21:50.465Z,73.61
2023-02-15T01:24:52.471Z,73.67
2023-02-15T01:27:54.316Z,73.66
2023-02-15T01:30:56.261Z,73.55
2023-02-15T01:33:58.146Z,73.42
2023-02-15T01:36:59.949Z,73.41
2023-02-15T01:40:03.338Z,73.42
2023-02-15T01:43:12.506Z,73.44
2023-02-15T01:46:18.134Z,73.34
2023-02-15T01:49:24.196Z,73.29
2023-02-15T01:52:27.005Z,73.23
2023-02-15T01:55:37.354Z,73.17
2023-02-15T01:58:39.318Z,73.17
2023-02-15T02:01:41.251Z,73.14
2023-02-15T02:04:49.490Z,73.15
2023-02-15T02:07:56.902Z,73.15
2023-02-15T02:10:58.775Z,73.20
2023-02-15T02:14:00.696Z,73.20
2023-02-15T02:17:15.594Z,73.22
2023-02-15T02:20:29.248Z,73.19
2023-02-15T02:24:08.373Z,73.29
2023-02-15T02:27:28.275Z,73.34
2023-02-15T02:30:53.921Z,73.37
2023-02-15T02:34:12.958Z,73.33
2023-02-15T02:37:28.578Z,73.35
2023-02-15T02:40:39.131Z,73.36
2023-02-15T02:43:52.029Z,73.39
2023-02-15T02:47:08.161Z,73.44
2023-02-15T02:50:21.850Z,73.52
2023-02-15T02:53:24.030Z,73.55
2023-02-15T02:56:30.824Z,73.57
2023-02-15T02:59:42.864Z,73.57
2023-02-15T03:02:49.241Z,73.55
2023-02-15T03:05:55.858Z,73.56
2023-02-15T03:09:06.731Z,73.62
2023-02-15T03:12:14.214Z,73.61
2023-02-15T03:15:52.013Z,73.66
2023-02-15T03:19:14.152Z,73.66
2023-02-15T03:22:24.283Z,73.72
2023-02-15T03:25:32.933Z,73.73
2023-02-15T03:28:45.885Z,73.76
2023-02-15T03:32:04.489Z,73.74
2023-02-15T03:35:07.611Z,73.76
2023-02-15T03:38:11.277Z,73.80
2023-02-15T03:41:15.499Z,73.76
2023-02-15T03:44:47.557Z,73.76
2023-02-15T03:47:52.814Z,73.78
2023-02-15T03:51:17.918Z,73.80
2023-02-15T03:54:42.544Z,73.85
2023-02-15T03:58:03.890Z,73.84
2023-02-15T04:01:40.764Z,73.83
2023-02-15T04:04:47.640Z,73.87
2023-02-15T04:07:49.574Z,73.91
2023-02-15T04:10:55.440Z,73.97
2023-02-15T04:13:57.461Z,74.01
2023-02-15T04:16:59.376Z,74.03
2023-02-15T04:20:19.681Z,74.06
2023-02-15T04:23:40.069Z,74.17
2023-02-15T04:26:41.962Z,74.14
2023-02-15T04:29:44.072Z,74.11
2023-02-15T04:32:46.123Z,74.18
2023-02-15T04:35:48.016Z,74.15
2023-02-15T04:38:49.910Z,74.11
2023-02-15T04:41:51.824Z,74.09
2023-02-15T04:44:54.059Z,74.09
2023-02-15T04:47:55.956Z,74.09
2023-02-15T04:50:57.884Z,74.07
2023-02-15T04:53:59.870Z,74.05
2023-02-15T04:57:02.230Z,74.06
2023-02-15T05:00:04.834Z,74.09
2023-02-15T05:03:06.824Z,74.09
2023-02-15T05:06:08.748Z,74.16
2023-02-15T05:09:13.953Z,74.20
2023-02-15T05:12:15.944Z,74.16
2023-02-15T05:15:18.220Z,74.17
2023-02-15T05:18:20.901Z,74.18
2023-02-15T05:21:23.210Z,74.19
2023-02-15T05:24:43.877Z,74.23
2023-02-15T05:28:05.332Z,74.24
2023-02-15T05:31:12.453Z,74.24
2023-02-15T05:34:14.814Z,74.27
2023-02-15T05:37:16.746Z,74.28
2023-02-15T05:40:18.754Z,74.31
2023-02-15T05:43:21.365Z,74.33
2023-02-15T05:46:23.446Z,74.38
2023-02-15T05:49:25.957Z,74.41
2023-02-15T05:52:27.860Z,74.46
2023-02-15T05:55:29.753Z,74.53
2023-02-15T05:58:34.524Z,74.60
2023-02-15T06:01:36.428Z,74.67
2023-02-15T06:04:38.240Z,74.70
2023-02-15T06:07:44.163Z,74.73
2023-02-15T06:10:46.885Z,74.76
2023-02-15T06:13:48.750Z,74.80
2023-02-15T06:16:51.690Z,74.85
2023-02-15T06:19:53.550Z,74.87
2023-02-15T06:22:55.389Z,74.89
2023-02-15T06:25:57.817Z,74.96
2023-02-15T06:28:59.649Z,74.98
2023-02-15T06:32:01.750Z,75.03
2023-02-15T06:35:04.157Z,75.06
2023-02-15T06:38:06.610Z,75.13
2023-02-15T06:41:08.370Z,75.18
2023-02-15T06:44:10.208Z,75.17
2023-02-15T06:47:12.151Z,75.19
2023-02-15T06:50:14.226Z,75.25
2023-02-15T06:53:16.050Z,75.32
2023-02-15T06:56:17.914Z,75.32
2023-02-15T06:59:19.676Z,75.36
2023-02-15T07:02:21.703Z,75.41
2023-02-15T07:05:24.369Z,75.43
2023-02-15T07:08:27.554Z,75.49
2023-02-15T07:11:47.893Z,75.54
2023-02-15T07:14:50.298Z,75.54
2023-02-15T07:17:52.234Z,75.55
2023-02-15T07:20:54.128Z,75.52
2023-02-15T07:23:59.157Z,75.49
2023-02-15T07:27:01.371Z,75.50
2023-02-15T07:30:04.899Z,75.50
2023-02-15T07:33:25.087Z,75.51
2023-02-15T07:36:27.014Z,75.55
2023-02-15T07:39:28.877Z,75.54
2023-02-15T07:42:31.178Z,75.57
2023-02-15T07:45:32.911Z,75.59
2023-02-15T07:48:35.825Z,75.56
2023-02-15T07:51:37.881Z,75.62
2023-02-15T07:54:39.799Z,75.68
2023-02-15T07:57:46.357Z,75.72
2023-02-15T08:00:57.079Z,75.70
2023-02-15T08:03:59.720Z,75.71
2023-02-15T08:07:01.655Z,75.71
2023-02-15T08:10:03.797Z,75.73
2023-02-15T08:13:05.684Z,75.79
2023-02-15T08:16:07.572Z,75.85
2023-02-15T08:19:21.365Z,75.93
2023-02-15T08:22:23.261Z,75.97
2023-02-15T08:25:25.120Z,75.98
2023-02-15T08:28:27.078Z,76.00
2023-02-15T08:31:29.344Z,76.07
2023-02-15T08:34:32.190Z,76.09
2023-02-15T08:37:34.097Z,76.06
2023-02-15T08:40:38.362Z,76.08
2023-02-15T08:43:40.975Z,76.09
2023-02-15T08:46:44.792Z,76.13
2023-02-15T08:49:46.925Z,76.11
2023-02-15T08:52:48.841Z,76.09
2023-02-15T08:55:57.812Z,76.07
2023-02-15T08:59:00.115Z,75.97
2023-02-15T09:02:03.303Z,75.86
2023-02-15T09:05:05.555Z,75.87
2023-02-15T09:08:07.590Z,75.88
2023-02-15T09:11:12.177Z,75.91
2023-02-15T09:14:20.634Z,76.00
2023-02-15T09:17:22.522Z,75.78
2023-02-15T09:20:24.602Z,75.57
2023-02-15T09:23:28.103Z,75.35
2023-02-15T09:26:31.593Z,75.24
2023-02-15T09:29:33.414Z,75.08
2023-02-15T09:32:35.221Z,74.97
2023-02-15T09:35:37.063Z,74.77
2023-02-15T09:38:38.902Z,74.56
2023-02-15T09:41:53.929Z,74.30
2023-02-15T09:45:04.531Z,74.09
2023-02-15T09:48:32.920Z,73.68
2023-02-15T09:51:43.345Z,73.53
2023-02-15T09:54:58.320Z,73.22
2023-02-15T09:58:23.443Z,72.90
2023-02-15T10:01:49.613Z,72.70
2023-02-15T10:05:29.452Z,72.40
2023-02-15T10:09:15.835Z,72.38
2023-02-15T10:12:37.633Z,72.22
2023-02-15T10:16:01.871Z,71.94
2023-02-15T10:19:14.725Z,71.41
2023-02-15T10:22:57.755Z,71.43
2023-02-15T10:26:02.686Z,71.26
2023-02-15T10:29:21.400Z,71.06
2023-02-15T10:32:29.629Z,70.83
2023-02-15T10:35:53.731Z,70.56
2023-02-15T10:39:14.051Z,70.32
2023-02-15T10:42:30.952Z,70.06
2023-02-15T10:45:48.452Z,69.66
2023-02-15T10:49:24.075Z,69.64
2023-02-15T10:52:34.698Z,69.30
2023-02-15T10:56:30.136Z,69.05
2023-02-15T10:59:42.959Z,68.71
2023-02-15T11:03:03.237Z,68.25
2023-02-15T11:06:07.701Z,67.88
2023-02-15T11:09:16.488Z,67.40
2023-02-15T11:12:23.172Z,66.93
2023-02-15T11:15:48.205Z,66.18
2023-02-15T11:18:53.645Z,66.07
2023-02-15T11:22:03.304Z,65.54
2023-02-15T11:25:18.120Z,64.96
2023-02-15T11:28:28.162Z,64.54
2023-02-15T11:31:41.601Z,64.17
2023-02-15T11:34:59.087Z,64.15
2023-02-15T11:38:13.320Z,63.33
2023-02-15T11:41:20.453Z,63.08
2023-02-15T11:44:38.326Z,62.71
2023-02-15T11:47:40.701Z,62.31
2023-02-15T11:50:44.764Z,62.09
2023-02-15T11:53:48.366Z,61.56
2023-02-15T11:56:50.779Z,60.97
2023-02-15T12:00:17.326Z,60.48
2023-02-15T12:03:23.677Z,60.64
2023-02-15T12:06:41.695Z,59.88
2023-02-15T12:10:21.796Z,59.78
2023-02-15T12:13:24.010Z,59.65
2023-02-15T12:16:27.421Z,59.23
2023-02-15T12:19:33.628Z,59.67
2023-02-15T12:22:37.856Z,58.72
2023-02-15T12:25:54.547Z,58.59
2023-02-15T12:29:02.422Z,58.37
2023-02-15T12:32:06.970Z,57.79
2023-02-15T12:35:15.043Z,57.34
2023-02-15T12:38:16.864Z,57.17
2023-02-15T12:41:25.809Z,57.19
2023-02-15T12:44:32.249Z,57.03
2023-02-15T12:47:35.232Z,56.90
2023-02-15T12:50:37.288Z,55.85
2023-02-15T12:53:39.712Z,55.49
2023-02-15T12:56:41.741Z,55.24
2023-02-15T12:59:51.857Z,54.98
2023-02-15T13:02:56.409Z,54.61
2023-02-15T13:05:59.236Z,54.42
2023-02-15T13:09:18.189Z,54.62
2023-02-15T13:12:30.919Z,54.33
2023-02-15T13:15:37.328Z,54.50
2023-02-15T13:18:52.522Z,54.23
2023-02-15T13:21:56.887Z,54.35
2023-02-15T13:25:03.935Z,54.10
2023-02-15T13:28:10.803Z,54.02
2023-02-15T13:31:16.798Z,54.09
2023-02-15T13:34:35.371Z,54.00
2023-02-15T13:38:02.503Z,54.09
2023-02-15T13:41:16.225Z,54.45
2023-02-15T13:44:46.199Z,54.57
2023-02-15T13:48:05.698Z,54.33
2023-02-15T13:51:36.099Z,54.48
2023-02-15T13:55:08.928Z,54.31
2023-02-15T13:58:33.780Z,54.42
2023-02-15T14:01:52.161Z,54.52
2023-02-15T14:04:54.275Z,54.59
2023-02-15T14:08:05.512Z,54.71
2023-02-15T14:11:19.454Z,54.92
2023-02-15T14:14:50.391Z,54.57
2023-02-15T14:17:55.470Z,54.58
2023-02-15T14:21:19.697Z,54.74
2023-02-15T14:24:37.707Z,55.05
2023-02-15T14:27:53.377Z,55.25
2023-02-15T14:30:55.703Z,55.52
2023-02-15T14:33:58.574Z,55.46
2023-02-15T14:37:02.195Z,55.39
2023-02-15T14:40:34.604Z,55.60
2023-02-15T14:44:14.273Z,55.73
2023-02-15T14:47:31.098Z,55.75
2023-02-15T14:50:39.815Z,55.85
2023-02-15T14:53:42.624Z,55.94
2023-02-15T14:56:46.307Z,56.04
2023-02-15T14:59:57.700Z,56.00
2023-02-15T15:03:00.680Z,56.06
2023-02-15T15:06:05.942Z,56.19
2023-02-15T15:09:25.978Z,56.30
2023-02-15T15:12:34.036Z,56.44
2023-02-15T15:15:47.042Z,56.43
2023-02-15T15:18:49.617Z,56.59
2023-02-15T15:21:56.522Z,56.78
2023-02-15T15:25:04.465Z,56.89
2023-02-15T15:28:06.564Z,57.07
2023-02-15T15:31:48.778Z,57.23
2023-02-15T15:35:15.466Z,57.49
2023-02-15T15:38:54.902Z,57.73
2023-02-15T15:42:34.494Z,57.91
2023-02-15T15:45:52.942Z,58.27
2023-02-15T15:48:54.995Z,58.51
2023-02-15T15:52:01.394Z,58.83
2023-02-15T15:55:14.198Z,59.16
2023-02-15T15:58:19.612Z,59.16
2023-02-15T16:01:30.361Z,59.23
2023-02-15T16:04:35.241Z,59.28
2023-02-15T16:07:40.532Z,59.36
2023-02-15T16:10:42.525Z,59.55
2023-02-15T16:13:44.890Z,59.62
2023-02-15T16:16:48.692Z,59.74
2023-02-15T16:19:52.364Z,59.70
2023-02-15T16:23:31.091Z,59.85
2023-02-15T16:26:53.452Z,59.98
2023-02-15T16:29:55.509Z,60.24
2023-02-15T16:33:10.063Z,60.41
2023-02-15T16:36:20.237Z,60.56
2023-02-15T16:39:22.366Z,60.77
2023-02-15T16:42:25.186Z,60.94
2023-02-15T16:45:29.325Z,61.17
2023-02-15T16:48:33.719Z,61.34
2023-02-15T16:51:36.536Z,61.53
2023-02-15T16:54:43.113Z,61.68
2023-02-15T16:57:45.791Z,61.70
2023-02-15T17:00:47.967Z,61.74
2023-02-15T17:03:51.924Z,61.71
2023-02-15T17:07:16.930Z,61.69
2023-02-15T17:10:30.576Z,61.67
2023-02-15T17:13:32.428Z,61.65
2023-02-15T17:16:53.096Z,61.75
2023-02-15T17:19:55.943Z,61.80
2023-02-15T17:22:58.310Z,61.88
2023-02-15T17:26:02.066Z,61.87
2023-02-15T17:29:13.461Z,61.87
2023-02-15T17:32:22.366Z,61.95
2023-02-15T17:35:27.699Z,62.01
2023-02-15T17:38:29.667Z,62.07
2023-02-15T17:41:34.605Z,62.15
2023-02-15T17:44:36.474Z,62.32
2023-02-15T17:47:39.923Z,63.96
2023-02-15T17:50:41.846Z,63.33
2023-02-15T17:54:06.316Z,62.40
2023-02-15T17:57:16.140Z,62.12
2023-02-15T18:00:36.924Z,62.11
2023-02-15T18:03:59.890Z,62.16
2023-02-15T18:07:20.490Z,62.27
2023-02-15T18:10:40.717Z,62.40
2023-02-15T18:13:42.670Z,62.58
2023-02-15T18:16:45.567Z,62.74
2023-02-15T18:19:47.860Z,64.19
2023-02-15T18:22:51.022Z,63.66
2023-02-15T18:25:52.835Z,63.45
2023-02-15T18:28:55.499Z,63.44
2023-02-15T18:31:59.319Z,63.48
2023-02-15T18:35:04.000Z,63.55
2023-02-15T18:38:06.148Z,63.60
2023-02-15T18:41:15.688Z,63.67
2023-02-15T18:44:17.604Z,63.78
2023-02-15T18:47:19.393Z,63.89
2023-02-15T18:50:24.072Z,63.98
2023-02-15T18:53:26.014Z,64.07
2023-02-15T18:56:30.083Z,64.16
2023-02-15T18:59:32.027Z,64.23
2023-02-15T19:02:33.876Z,64.31
2023-02-15T19:05:35.921Z,64.37
2023-02-15T19:08:37.843Z,64.42
2023-02-15T19:11:39.804Z,64.50
2023-02-15T19:14:41.742Z,64.60
2023-02-15T19:17:44.197Z,64.66
2023-02-15T19:20:47.204Z,64.74
2023-02-15T19:23:57.169Z,64.83
2023-02-15T19:26:59.281Z,64.90
2023-02-15T19:30:16.040Z,65.01
2023-02-15T19:33:20.310Z,65.05
2023-02-15T19:36:22.470Z,65.15
2023-02-15T19:39:37.046Z,65.18
2023-02-15T19:42:38.930Z,65.21
2023-02-15T19:45:40.780Z,65.25
2023-02-15T19:48:42.710Z,65.34
2023-02-15T19:51:44.938Z,65.38
2023-02-15T19:54:48.570Z,65.43
2023-02-15T19:57:51.670Z,65.50
2023-02-15T20:00:53.520Z,65.59
2023-02-15T20:03:55.397Z,65.67
2023-02-15T20:07:00.890Z,65.75
2023-02-15T20:10:03.308Z,65.81
2023-02-15T20:13:05.315Z,65.85
2023-02-15T20:16:09.083Z,65.89
2023-02-15T20:19:12.401Z,65.92
2023-02-15T20:22:25.824Z,66.01
2023-02-15T20:25:30.320Z,66.03
2023-02-15T20:28:32.379Z,66.10
2023-02-15T20:31:34.433Z,66.12
2023-02-15T20:34:36.439Z,66.15
2023-02-15T20:37:38.550Z,66.21
2023-02-15T20:41:00.785Z,66.25
2023-02-15T20:44:19.457Z,66.25
2023-02-15T20:47:21.311Z,66.25
2023-02-15T20:50:25.894Z,66.29
2023-02-15T20:53:28.402Z,66.27
2023-02-15T20:56:30.934Z,66.28
2023-02-15T20:59:34.533Z,66.32
2023-02-15T21:02:36.480Z,66.38
2023-02-15T21:05:38.681Z,66.39
2023-02-15T21:08:40.917Z,66.40
2023-02-15T21:11:46.908Z,66.46
2023-02-15T21:14:48.885Z,66.46
2023-02-15T21:17:50.861Z,66.50
2023-02-15T21:20:56.861Z,66.49
2023-02-15T21:23:58.723Z,66.50
2023-02-15T21:27:02.968Z,66.54
2023-02-15T21:30:14.344Z,66.58
2023-02-15T21:33:17.018Z,66.58
2023-02-15T21:36:20.064Z,66.61
2023-02-15T21:39:24.425Z,66.55
2023-02-15T21:42:46.139Z,66.62
2023-02-15T21:46:06.552Z,66.66
2023-02-15T21:49:10.084Z,66.68
2023-02-15T21:52:14.052Z,66.67
2023-02-15T21:55:16.253Z,66.70
2023-02-15T21:58:20.408Z,66.73
2023-02-15T22:01:26.018Z,66.84
2023-02-15T22:04:29.581Z,67.09
2023-02-15T22:07:31.421Z,66.99
2023-02-15T22:10:33.312Z,66.91
2023-02-15T22:13:35.405Z,66.84
2023-02-15T22:16:37.306Z,66.80
2023-02-15T22:19:39.228Z,66.80
2023-02-15T22:22:41.019Z,66.79
2023-02-15T22:25:49.450Z,66.76
2023-02-15T22:28:51.575Z,66.76
2023-02-15T22:31:53.624Z,66.86
2023-02-15T22:34:55.614Z,66.82
2023-02-15T22:37:58.304Z,66.85
2023-02-15T22:41:03.456Z,66.84
2023-02-15T22:44:05.628Z,66.87
2023-02-15T22:47:08.073Z,66.93
2023-02-15T22:50:30.950Z,66.94
2023-02-15T22:53:32.802Z,66.96
2023-02-15T22:56:39.362Z,66.98
2023-02-15T22:59:43.926Z,67.03
2023-02-15T23:02:46.509Z,67.08
2023-02-15T23:05:48.729Z,67.12
2023-02-15T23:08:50.574Z,67.17
2023-02-15T23:11:53.331Z,67.18
2023-02-15T23:14:56.626Z,67.19
2023-02-15T23:18:17.587Z,67.23
2023-02-15T23:21:31.061Z,67.23
2023-02-15T23:24:33.907Z,67.32
2023-02-15T23:27:54.211Z,67.36
2023-02-15T23:30:58.463Z,67.34
2023-02-15T23:34:06.682Z,67.35
2023-02-15T23:37:11.799Z,67.35
2023-02-15T23:40:37.701Z,67.40
2023-02-15T23:43:42.171Z,67.40
2023-02-15T23:46:49.187Z,67.38
2023-02-15T23:49:51.133Z,67.39
2023-02-15T23:52:54.503Z,67.41
2023-02-15T23:55:57.597Z,67.39
2023-02-15T23:58:59.836Z,67.36
